Time;durP1;ratioP1;P1;durP2;ratioP2;P2;SDS_P1;SDS_P2;PMS_P1;PMS_P2;Temp;Humidity;BMP_temperature;BMP_pressure;BME280_temperature;BME280_humidity;BME280_pressure;Samples;Min_cycle;Max_cycle;Signal;HPM_P1;HPM_P2
2022/08/25 00:00:08;;;;;;;1.25;0.70;;;;;;;;;;20810933;28;20265;-72
2022/08/25 00:10:10;;;;;;;0.98;0.70;;;;;;;;;;20820639;28;20589;-72
2022/08/25 00:20:11;;;;;;;1.27;0.70;;;;;;;;;;20820383;28;20221;-72
2022/08/25 00:30:15;;;;;;;3.22;0.80;;;;;;;;;;20819932;28;20268;-72
2022/08/25 00:40:17;;;;;;;1.70;0.80;;;;;;;;;;20787985;28;20414;-72
2022/08/25 00:50:20;;;;;;;2.10;0.82;;;25.50;89.30;;;;;;20817905;28;20209;-72
2022/08/25 01:00:21;;;;;;;1.27;0.60;;;;;;;;;;20819184;28;20209;-72
2022/08/25 01:10:24;;;;;;;2.33;0.73;;;25.30;90.00;;;;;;20831360;28;20263;-72
2022/08/25 01:20:28;;;;;;;2.42;1.00;;;;;;;;;;20845498;28;20217;-72
2022/08/25 01:30:30;;;;;;;3.22;0.95;;;;;;;;;;20828244;28;20230;-72
2022/08/25 01:40:32;;;;;;;1.50;0.73;;;24.80;85.60;;;;;;20827816;28;20221;-72
2022/08/25 01:50:34;;;;;;;0.82;0.65;;;23.70;87.50;;;;;;20828517;28;20272;-73
2022/08/25 02:00:35;;;;;;;1.42;0.73;;;;;;;;;;20825708;28;20346;-73
2022/08/25 02:10:38;;;;;;;2.20;0.93;;;;;;;;;;20815657;28;20214;-72
2022/08/25 02:20:40;;;;;;;2.40;0.70;;;;;;;;;;20837619;28;20834;-72
2022/08/25 02:30:42;;;;;;;1.40;0.88;;;;;;;;;;20820903;28;20770;-72
2022/08/25 02:40:44;;;;;;;0.98;0.60;;;;;;;;;;20823623;28;20217;-72
2022/08/25 02:50:46;;;;;;;1.55;0.85;;;24.20;95.20;;;;;;20784140;28;20205;-72
2022/08/25 03:00:49;;;;;;;2.03;0.80;;;24.80;92.70;;;;;;20841566;28;20283;-72
2022/08/25 03:10:52;;;;;;;2.40;0.88;;;;;;;;;;20825763;28;20771;-72
2022/08/25 03:20:53;;;;;;;1.08;0.73;;;;;;;;;;20825132;28;20213;-72
2022/08/25 03:30:55;;;;;;;1.80;0.90;;;;;;;;;;20812155;28;20220;-72
2022/08/25 03:40:57;;;;;;;1.48;0.60;;;;;;;;;;20823176;28;20212;-72
2022/08/25 03:50:59;;;;;;;1.88;0.90;;;;;;;;;;20821929;28;20643;-72
2022/08/25 04:01:01;;;;;;;3.75;0.98;;;;;;;;;;20820582;28;20221;-72
2022/08/25 04:11:14;;;;;;;2.83;0.88;;;23.50;98.50;;;;;;20820104;28;20241;-71
2022/08/25 04:21:17;;;;;;;1.65;0.90;;;;;;;;;;20821233;28;20215;-72
2022/08/25 04:31:23;;;;;;;4.00;0.90;;;;;;;;;;20818748;28;20217;-72
2022/08/25 04:41:24;;;;;;;2.45;1.30;;;;;;;;;;20962778;22;20233;-76
2022/08/25 04:51:32;;;;;;;3.08;1.33;;;;;;;;;;20999931;28;20216;-75
2022/08/25 05:01:34;;;;;;;4.35;1.23;;;;;;;;;;21002928;28;20590;-75
2022/08/25 05:11:36;;;;;;;4.47;1.20;;;;;;;;;;21023726;28;20209;-74
2022/08/25 05:21:37;;;;;;;5.47;1.10;;;;;;;;;;20996466;28;20284;-73
2022/08/25 05:31:39;;;;;;;2.88;1.00;;;;;;;;;;21026223;28;20264;-72
2022/08/25 05:41:41;;;;;;;1.30;0.77;;;;;;;;;;21053074;28;20223;-72
2022/08/25 05:51:42;;;;;;;1.92;0.80;;;;;;;;;;21071631;28;20199;-72
2022/08/25 06:12:05;;;;;;;1.60;0.93;;;;;;;;;;21046834;28;20621;-73
2022/08/25 06:22:06;;;;;;;2.33;1.02;;;;;;;;;;21067279;28;20217;-72
2022/08/25 06:32:08;;;;;;;2.50;1.33;;;;;;;;;;21077420;28;20245;-73
2022/08/25 06:42:10;;;;;;;3.33;1.10;;;;;;;;;;21048068;28;20272;-68
2022/08/25 06:52:12;;;;;;;2.45;1.08;;;;;;;;;;21053845;28;20189;-71
2022/08/25 07:02:13;;;;;;;3.15;1.30;;;;;;;;;;21033685;28;20205;-74
2022/08/25 07:12:15;;;;;;;3.10;1.27;;;;;;;;;;21051071;28;20193;-77
2022/08/25 07:22:17;;;;;;;1.70;1.20;;;;;;;;;;21048214;28;20270;-74
2022/08/25 07:32:18;;;;;;;3.38;1.63;;;;;;;;;;21071664;28;20183;-74
2022/08/25 07:42:20;;;;;;;2.72;1.80;;;;;;;;;;21075409;28;20217;-74
2022/08/25 07:52:22;;;;;;;3.70;1.63;;;;;;;;;;21074246;28;20266;-74
2022/08/25 08:02:24;;;;;;;4.07;1.60;;;;;;;;;;21073320;28;20214;-75
2022/08/25 08:12:26;;;;;;;3.13;1.30;;;;;;;;;;21054381;28;20207;-75
2022/08/25 08:22:28;;;;;;;1.95;1.30;;;;;;;;;;21072386;28;20218;-74
2022/08/25 08:32:29;;;;;;;2.85;1.60;;;;;;;;;;21071092;28;20316;-74
2022/08/25 08:42:35;;;;;;;2.35;1.60;;;;;;;;;;21051606;28;20637;-75
2022/08/25 08:52:43;;;;;;;2.53;1.33;;;26.60;92.80;;;;;;21069934;28;20216;-75
2022/08/25 09:03:15;;;;;;;1.88;1.20;;;26.90;97.80;;;;;;21033068;28;20219;-75
2022/08/25 09:13:32;;;;;;;2.25;1.30;;;27.00;88.50;;;;;;21063935;28;20224;-75
2022/08/25 09:23:51;;;;;;;1.42;1.10;;;27.30;86.40;;;;;;21070853;28;20692;-75
2022/08/25 09:33:56;;;;;;;1.83;1.40;;;27.60;97.90;;;;;;21082447;28;20219;-74
2022/08/25 09:43:57;;;;;;;2.33;1.38;;;;;;;;;;21082341;28;20208;-75
2022/08/25 09:54:11;;;;;;;2.65;1.52;;;27.40;96.60;;;;;;21081996;28;20255;-74
2022/08/25 10:04:14;;;;;;;2.00;1.13;;;;;;;;;;21047461;28;20235;-75
2022/08/25 10:14:19;;;;;;;1.90;1.08;;;;;;;;;;21078394;28;20222;-76
2022/08/25 10:24:20;;;;;;;2.05;1.30;;;;;;;;;;21059704;28;20211;-75
2022/08/25 10:34:46;;;;;;;3.15;1.08;;;28.70;78.30;;;;;;21091280;22;20579;-69
2022/08/25 10:55:32;;;;;;;1.30;1.00;;;28.90;90.00;;;;;;21060971;28;20223;-70
2022/08/25 11:05:50;;;;;;;1.85;0.95;;;29.30;88.30;;;;;;21026667;28;20208;-69
2022/08/25 11:15:57;;;;;;;1.55;0.85;;;29.20;88.40;;;;;;21042892;28;20245;-70
2022/08/25 11:26:07;;;;;;;1.38;1.00;;;29.00;90.80;;;;;;21041734;28;20240;-70
2022/08/25 11:36:35;;;;;;;1.63;1.02;;;28.90;85.10;;;;;;21040364;28;20295;-70
2022/08/25 11:46:58;;;;;;;2.38;0.80;;;28.70;87.90;;;;;;21038026;28;20277;-69
2022/08/25 11:57:01;;;;;;;2.20;1.10;;;;;;;;;;21055183;28;20356;-69
2022/08/25 12:07:06;;;;;;;2.20;0.90;;;;;;;;;;21038155;28;20272;-69
2022/08/25 12:17:17;;;;;;;1.98;0.80;;;;;;;;;;21054061;28;20227;-68
2022/08/25 12:27:23;;;;;;;1.75;1.05;;;;;;;;;;21037111;28;20677;-69
2022/08/25 12:37:26;;;;;;;1.33;0.90;;;30.90;79.50;;;;;;21036103;28;20627;-69
2022/08/25 12:47:33;;;;;;;1.17;0.80;;;;;;;;;;21056742;28;20217;-69
2022/08/25 12:57:42;;;;;;;1.10;0.80;;;;;;;;;;21038272;28;20216;-70
2022/08/25 13:07:44;;;;;;;3.88;1.42;;;;;;;;;;21023530;28;20256;-71
2022/08/25 13:17:46;;;;;;;1.83;0.95;;;;;;;;;;21053692;28;20225;-70
2022/08/25 13:27:55;;;;;;;1.15;0.73;;;31.20;85.00;;;;;;21050164;28;20204;-71
2022/08/25 13:38:14;;;;;;;1.73;0.98;;;;;;;;;;21044413;28;20274;-68
2022/08/25 13:48:31;;;;;;;0.98;0.70;;;;;;;;;;21050470;28;20212;-68
2022/08/25 13:58:34;;;;;;;1.63;0.70;;;;;;;;;;20995076;28;20220;-68
2022/08/25 14:08:38;;;;;;;1.23;0.65;;;;;;;;;;21041586;28;20220;-69
2022/08/25 14:18:50;;;;;;;1.45;0.85;;;;;;;;;;21054218;28;20285;-69
2022/08/25 14:28:52;;;;;;;1.73;0.98;;;;;;;;;;21028111;28;20253;-69
2022/08/25 14:38:54;;;;;;;1.05;0.70;;;;;;;;;;21037549;28;20254;-69
2022/08/25 14:48:58;;;;;;;1.80;0.90;;;;;;;;;;21019394;28;20209;-70
2022/08/25 14:59:00;;;;;;;1.33;0.90;;;31.50;75.40;;;;;;21039335;28;20250;-69
2022/08/25 15:09:07;;;;;;;1.10;0.70;;;;;;;;;;21054080;28;20209;-70
2022/08/25 15:19:13;;;;;;;3.13;0.90;;;31.80;74.70;;;;;;21035610;28;20563;-70
2022/08/25 15:29:15;;;;;;;1.10;0.63;;;;;;;;;;21021739;28;20627;-70
2022/08/25 15:39:17;;;;;;;1.60;0.80;;;;;;;;;;21015057;28;20305;-70
2022/08/25 15:49:20;;;;;;;0.93;0.60;;;;;;;;;;21025202;28;20638;-69
2022/08/25 15:59:24;;;;;;;1.25;0.65;;;31.90;66.50;;;;;;21049966;28;20254;-69
2022/08/25 16:09:26;;;;;;;1.20;0.70;;;;;;;;;;21050082;28;20200;-70
2022/08/25 16:19:28;;;;;;;1.00;0.70;;;;;;;;;;21035972;28;20221;-70
2022/08/25 16:29:35;;;;;;;1.52;0.70;;;31.30;78.80;;;;;;21110840;28;20251;-70
2022/08/25 16:39:42;;;;;;;0.90;0.57;;;;;;;;;;21045066;22;20228;-80
2022/08/25 16:49:45;;;;;;;1.30;0.77;;;30.50;80.70;;;;;;21072274;28;20569;-82
2022/08/25 16:59:47;;;;;;;1.80;1.00;;;;;;;;;;21054539;28;20598;-81
2022/08/25 17:09:48;;;;;;;1.13;0.63;;;;;;;;;;21027351;28;20682;-81
2022/08/25 17:19:51;;;;;;;2.40;1.00;;;;;;;;;;21054489;28;20297;-80
2022/08/25 17:29:53;;;;;;;2.00;1.00;;;;;;;;;;21029663;28;20751;-82
2022/08/25 17:39:55;;;;;;;2.42;0.82;;;;;;;;;;21051600;28;20640;-82
2022/08/25 17:49:57;;;;;;;1.48;0.77;;;;;;;;;;21020805;28;20725;-81
2022/08/25 17:59:59;;;;;;;0.98;0.60;;;;;;;;;;21101499;28;20260;-82
2022/08/25 18:10:01;;;;;;;1.63;1.10;;;;;;;;;;21021536;28;20274;-81
2022/08/25 18:20:05;;;;;;;0.85;0.70;;;;;;;;;;20973641;28;20233;-81
2022/08/25 18:30:07;;;;;;;4.70;1.10;;;29.60;82.70;;;;;;20964264;28;20217;-80
2022/08/25 18:40:22;;;;;;;2.63;0.70;;;29.50;78.70;;;;;;20994706;28;20710;-81
2022/08/25 19:49:43;;;;;;;1.70;1.00;;;;;;;;;;21030469;22;20243;-74
2022/08/25 19:59:46;;;;;;;2.45;1.13;;;;;;;;;;20949661;28;20637;-74
2022/08/25 20:09:48;;;;;;;2.72;1.00;;;;;;;;;;20945677;28;20221;-74
2022/08/25 20:19:52;;;;;;;3.67;1.10;;;28.30;80.20;;;;;;20902316;28;21030;-74
2022/08/25 20:29:55;;;;;;;1.65;1.02;;;;;;;;;;21020135;28;20257;-74
2022/08/25 20:39:57;;;;;;;2.10;1.35;;;;;;;;;;21043334;28;20215;-74
2022/08/25 20:49:59;;;;;;;2.88;1.10;;;;;;;;;;21111591;28;20232;-74
2022/08/25 21:00:01;;;;;;;1.45;1.05;;;;;;;;;;21110665;28;20268;-74
2022/08/25 21:10:09;;;;;;;1.30;0.95;;;27.90;87.80;;;;;;21110587;28;20195;-74
2022/08/25 21:20:11;;;;;;;2.35;1.10;;;;;;;;;;21097679;28;20214;-74
2022/08/25 21:30:13;;;;;;;1.60;1.02;;;;;;;;;;21129484;28;20225;-74
2022/08/25 21:40:15;;;;;;;2.13;1.00;;;;;;;;;;21145561;28;20648;-74
2022/08/25 21:50:16;;;;;;;2.40;1.10;;;;;;;;;;21128073;28;20226;-74
2022/08/25 22:00:18;;;;;;;2.60;1.17;;;;;;;;;;21124487;28;20299;-74
2022/08/25 22:10:20;;;;;;;1.08;0.90;;;;;;;;;;21141389;28;20203;-74
2022/08/25 22:20:23;;;;;;;2.05;1.15;;;;;;;;;;21107004;28;20705;-74
2022/08/25 22:30:26;;;;;;;2.13;1.17;;;;;;;;;;21128843;28;20206;-74
2022/08/25 22:40:28;;;;;;;1.65;1.10;;;;;;;;;;21106615;28;20223;-74
2022/08/25 22:50:30;;;;;;;2.15;0.95;;;;;;;;;;21127311;28;20253;-74
2022/08/25 23:00:32;;;;;;;2.92;1.40;;;;;;;;;;21126426;28;20591;-74
2022/08/25 23:10:34;;;;;;;2.25;1.08;;;;;;;;;;21142729;28;20245;-74
2022/08/25 23:30:56;;;;;;;1.45;1.05;;;;;;;;;;21143733;28;20705;-74
2022/08/25 23:40:58;;;;;;;5.10;1.20;;;;;;;;;;21122719;28;20671;-74
2022/08/25 23:51:00;;;;;;;3.80;1.23;;;;;;;;;;21139260;28;20260;-74
